Time;durP1;ratioP1;P1;durP2;ratioP2;P2;SDS_P1;SDS_P2;PMS_P1;PMS_P2;Temp;Humidity;BMP_temperature;BMP_pressure;BME280_temperature;BME280_humidity;BME280_pressure;Samples;Min_cycle;Max_cycle;Signal;HPM_P1;HPM_P2
2022/02/26 00:01:47;;;;;;;17.53;4.80;;;;;;;-142.75;100.00;79604.88;5033030;28;20068;-70
2022/02/26 00:04:12;;;;;;;15.13;3.63;;;;;;;-142.75;100.00;79610.78;5032543;28;20279;-70
2022/02/26 00:06:38;;;;;;;12.98;3.88;;;;;;;-142.75;100.00;79626.53;5032574;28;20025;-70
2022/02/26 00:09:04;;;;;;;14.52;3.85;;;;;;;-142.75;100.00;79642.28;5032576;28;20055;-70
2022/02/26 00:11:29;;;;;;;18.75;4.03;;;;;;;-142.75;100.00;79640.31;5032439;28;20051;-70
2022/02/26 00:13:54;;;;;;;18.70;3.78;;;;;;;-142.75;100.00;79630.47;5050424;28;20025;-70
2022/02/26 00:16:20;;;;;;;17.08;3.13;;;;;;;-142.75;100.00;79630.47;5050319;28;20083;-70
2022/02/26 00:18:45;;;;;;;23.17;3.58;;;;;;;-142.75;100.00;79626.53;5032633;28;20028;-71
2022/02/26 00:21:12;;;;;;;18.13;3.15;;;;;;;-142.75;100.00;79634.41;5050298;28;20066;-70
2022/02/26 00:23:37;;;;;;;22.10;3.57;;;;;;;-142.75;100.00;79626.53;5032317;28;20072;-71
2022/02/26 00:26:03;;;;;;;20.15;2.83;;;;;;;-142.75;100.00;79636.38;5050144;28;20612;-71
2022/02/26 00:28:28;;;;;;;11.95;2.67;;;;;;;-142.75;100.00;79630.47;5032175;28;20108;-70
2022/02/26 00:30:54;;;;;;;19.35;3.13;;;;;;;-142.75;100.00;79630.47;5032141;28;20028;-70
2022/02/26 00:33:19;;;;;;;18.92;3.00;;;;;;;-142.75;100.00;79632.44;5032144;28;20086;-70
2022/02/26 00:35:45;;;;;;;17.00;3.15;;;;;;;-142.75;100.00;79638.34;5050001;28;20021;-70
2022/02/26 00:38:10;;;;;;;15.20;2.83;;;;;;;-142.75;100.00;79634.41;5031722;28;20024;-70
2022/02/26 00:40:37;;;;;;;17.03;3.37;;;;;;;-142.75;100.00;79632.44;5050266;28;20391;-70
2022/02/26 00:43:02;;;;;;;12.57;2.92;;;;;;;-142.75;100.00;79634.41;5050143;28;20163;-70
2022/02/26 00:45:28;;;;;;;17.02;3.80;;;;;;;-142.75;100.00;79628.50;5049844;28;20364;-70
2022/02/26 00:47:53;;;;;;;19.88;2.60;;;;;;;-142.75;100.00;79616.69;5050355;28;20125;-69
2022/02/26 00:50:18;;;;;;;14.10;2.60;;;;;;;-142.75;100.00;79614.72;5032052;28;20024;-70
2022/02/26 00:52:44;;;;;;;12.70;2.78;;;;;;;-142.75;100.00;79614.72;5049832;28;20297;-70
2022/02/26 00:55:09;;;;;;;15.60;3.47;;;;;;;-142.75;100.00;79628.50;5032060;28;20029;-70
2022/02/26 00:57:35;;;;;;;16.23;2.85;;;;;;;-142.75;100.00;79656.09;5031934;28;20017;-70
2022/02/26 01:00:02;;;;;;;19.65;3.00;;;;;;;-142.75;100.00;79667.91;5049652;28;20414;-71
2022/02/26 01:02:27;;;;;;;15.43;3.30;;;;;;;-142.75;100.00;79669.88;5031877;28;20017;-70
2022/02/26 01:04:53;;;;;;;14.35;3.63;;;;;;;-142.75;100.00;79703.38;5031939;28;20063;-70
2022/02/26 01:07:18;;;;;;;22.48;4.18;;;;;;;-142.75;100.00;79719.13;5050034;28;20116;-70
2022/02/26 01:09:44;;;;;;;19.35;4.20;;;;;;;-142.75;100.00;79723.06;5049550;28;20029;-70
2022/02/26 01:12:10;;;;;;;17.40;4.07;;;;;;;-142.75;100.00;79744.72;5049400;28;20029;-70
2022/02/26 01:14:36;;;;;;;17.27;4.53;;;;;;;-142.75;100.00;79748.66;5049871;28;20102;-70
2022/02/26 01:17:04;;;;;;;17.73;4.35;;;;;;;-142.75;100.00;79805.81;5049675;28;20441;-70
2022/02/26 01:19:29;;;;;;;19.80;4.43;;;;;;;-142.75;100.00;79803.84;5032130;28;20558;-70
2022/02/26 01:21:55;;;;;;;19.27;4.72;;;;;;;-142.75;100.00;79801.88;5049696;28;20092;-70
2022/02/26 01:24:20;;;;;;;10.43;4.07;;;;;;;-142.75;100.00;79801.88;5049728;28;20103;-70
2022/02/26 01:26:46;;;;;;;14.27;4.45;;;;;;;-142.75;100.00;79807.78;5049656;28;20074;-70
2022/02/26 01:29:12;;;;;;;19.35;4.93;;;;;;;-142.75;100.00;79819.59;5031511;28;20024;-70
2022/02/26 01:31:37;;;;;;;17.17;5.32;;;;;;;-142.75;100.00;79813.69;5049613;28;20025;-70
2022/02/26 01:34:04;;;;;;;19.23;6.30;;;;;;;-142.75;100.00;79817.63;5031817;28;20033;-70
2022/02/26 01:36:29;;;;;;;;;;;;;;;-142.75;100.00;79815.66;5049818;28;20021;-70
2022/02/26 01:38:55;;;;;;;15.50;4.10;;;;;;;-142.75;100.00;79821.56;5052110;28;19912;-70
2022/02/26 01:41:20;;;;;;;17.13;4.60;;;;;;;-142.75;100.00;79843.22;5053384;28;20762;-70
2022/02/26 01:43:46;;;;;;;11.32;4.68;;;;;;;-142.75;100.00;79866.88;5050749;28;20048;-70
2022/02/26 01:46:12;;;;;;;15.80;3.92;;;;;;;-142.75;100.00;79886.56;5035246;28;20077;-70
2022/02/26 01:48:38;;;;;;;17.43;5.00;;;;;;;-142.75;100.00;79886.56;5053453;28;20390;-70
2022/02/26 01:51:06;;;;;;;14.52;4.22;;;;;;;-142.75;100.00;79902.34;5053296;28;20025;-70
2022/02/26 01:53:32;;;;;;;13.67;3.03;;;;;;;-142.75;100.00;79894.47;5035005;28;20086;-70
2022/02/26 01:55:57;;;;;;;23.63;5.57;;;;;;;-142.75;100.00;79888.53;5035199;28;20394;-70
2022/02/26 01:58:22;;;;;;;12.10;6.00;;;;;;;-142.75;100.00;79894.47;5052580;28;20031;-70
2022/02/26 02:00:48;;;;;;;16.15;6.10;;;;;;;-142.75;100.00;79898.41;5052974;28;20016;-70
2022/02/26 02:03:13;;;;;;;12.43;3.75;;;;;;;-142.75;100.00;79888.53;5052985;28;20021;-70
2022/02/26 02:05:39;;;;;;;18.02;3.97;;;;;;;-142.75;100.00;79890.50;5052946;28;20166;-70
2022/02/26 02:08:05;;;;;;;12.38;3.60;;;;;;;-142.75;100.00;79888.53;5052507;28;20028;-70
2022/02/26 02:10:30;;;;;;;11.23;3.45;;;;;;;-142.75;100.00;79894.47;5052848;28;20036;-70
2022/02/26 02:12:58;;;;;;;11.50;4.30;;;;;;;-142.75;100.00;79894.47;5052634;28;20761;-70
2022/02/26 02:15:41;;;;;;;11.93;3.67;;;;;;;-142.75;100.00;79888.53;5050218;28;20301;-70
2022/02/26 02:18:09;;;;;;;16.53;4.13;;;;;;;-142.75;100.00;79894.47;5053059;28;20074;-70
2022/02/26 02:20:34;;;;;;;12.80;3.53;;;;;;;-142.75;100.00;79892.50;5052561;28;20052;-70
2022/02/26 02:22:59;;;;;;;18.48;4.88;;;;;;;-142.75;100.00;79890.50;5052422;28;20063;-70
2022/02/26 02:25:33;;;;;;;17.58;3.92;;;;;;;-142.75;100.00;79878.69;5052716;28;20049;-71
2022/02/26 02:27:59;;;;;;;28.63;5.07;;;;;;;-142.75;100.00;79855.06;5051988;28;20095;-70
2022/02/26 02:30:25;;;;;;;;;;;;;;;-142.75;100.00;79843.22;5052960;28;20028;-70
2022/02/26 02:32:52;;;;;;;18.63;4.47;;;;;;;-142.75;100.00;79837.31;5052324;28;19916;-70
2022/02/26 02:35:30;;;;;;;13.47;4.00;;;;;;;-142.75;100.00;79819.59;5034205;28;20051;-70
2022/02/26 02:37:57;;;;;;;14.57;3.27;;;;;;;-142.75;100.00;79813.69;5034287;28;20029;-70
2022/02/26 02:40:23;;;;;;;14.90;3.60;;;;;;;-142.75;100.00;79831.41;5034475;28;20031;-70
2022/02/26 02:42:50;;;;;;;15.20;3.40;;;;;;;-142.75;100.00;79833.38;5052310;28;20098;-70
2022/02/26 02:45:15;;;;;;;20.87;4.10;;;;;;;-142.75;100.00;79849.16;5051925;28;20021;-70
2022/02/26 02:47:40;;;;;;;18.73;3.72;;;;;;;-142.75;100.00;79859.00;5052214;28;20031;-70
2022/02/26 02:50:06;;;;;;;23.33;4.13;;;;;;;-142.75;100.00;79876.72;5032761;28;20033;-71
2022/02/26 02:52:31;;;;;;;13.65;3.28;;;;;;;-142.75;100.00;79882.63;5051969;28;20029;-71
2022/02/26 02:54:57;;;;;;;14.43;3.27;;;;;;;-142.75;100.00;79876.72;5034195;28;20108;-70
2022/02/26 02:57:22;;;;;;;16.00;3.83;;;;;;;-142.75;100.00;79866.88;5052100;28;20279;-71
2022/02/26 02:59:47;;;;;;;12.13;3.23;;;;;;;-142.75;100.00;79864.91;5033727;28;20268;-70
2022/02/26 03:02:13;;;;;;;14.63;3.75;;;;;;;-142.75;100.00;79864.91;5030708;28;20500;-71
2022/02/26 03:04:38;;;;;;;12.40;3.37;;;;;;;-142.75;100.00;79862.94;5051783;28;20510;-70
2022/02/26 03:07:03;;;;;;;11.57;3.33;;;;;;;-142.75;100.00;79849.16;5051626;28;20025;-70
2022/02/26 03:09:29;;;;;;;12.93;3.20;;;;;;;-142.75;100.00;79843.22;5051342;28;20490;-71
2022/02/26 03:11:54;;;;;;;16.13;3.20;;;;;;;-142.75;100.00;79835.34;5051581;28;20033;-70
2022/02/26 03:14:19;;;;;;;15.27;3.40;;;;;;;-142.75;100.00;79839.28;5033537;28;20017;-70
2022/02/26 03:16:45;;;;;;;15.95;3.95;;;;;;;-142.75;100.00;79835.34;5051516;28;20048;-71
2022/02/26 03:19:10;;;;;;;12.67;3.80;;;;;;;-142.75;100.00;79843.22;5051717;28;20532;-70
2022/02/26 03:21:36;;;;;;;13.18;3.05;;;;;;;-142.75;100.00;79841.25;5051443;28;20025;-71
2022/02/26 03:24:01;;;;;;;14.57;3.30;;;;;;;-142.75;100.00;79841.25;5033695;28;20017;-70
2022/02/26 03:26:27;;;;;;;14.98;3.70;;;;;;;-142.75;100.00;79845.22;5051053;28;20114;-70
2022/02/26 03:28:52;;;;;;;16.17;3.25;;;;;;;-142.75;100.00;79843.22;5051124;28;20028;-70
2022/02/26 03:31:17;;;;;;;13.57;3.77;;;;;;;-142.75;100.00;79841.25;5051207;28;20021;-71
2022/02/26 03:33:43;;;;;;;17.00;4.80;;;;;;;-142.75;100.00;79847.19;5033129;28;20902;-70
2022/02/26 03:36:08;;;;;;;14.52;3.13;;;;;;;-142.75;100.00;79845.22;5050974;28;20028;-71
2022/02/26 03:38:33;;;;;;;14.48;3.22;;;;;;;-142.75;100.00;79859.00;5050930;28;20189;-70
2022/02/26 03:40:59;;;;;;;18.77;3.67;;;;;;;-142.75;100.00;79859.00;5050891;28;20032;-71
2022/02/26 03:43:24;;;;;;;13.35;2.90;;;;;;;-142.75;100.00;79864.91;5051137;28;20016;-71
2022/02/26 03:45:49;;;;;;;18.77;3.33;;;;;;;-142.75;100.00;79904.31;5051017;28;20392;-70
2022/02/26 03:48:15;;;;;;;12.70;3.40;;;;;;;-142.75;100.00;79925.97;5033089;28;20025;-70
2022/02/26 03:50:41;;;;;;;14.20;3.28;;;;;;;-142.75;100.00;79935.84;5050714;28;20267;-70
2022/02/26 03:53:08;;;;;;;10.95;3.25;;;;;;;-142.75;100.00;79925.97;5050903;28;20067;-71
2022/02/26 03:55:34;;;;;;;17.20;3.77;;;;;;;-142.75;100.00;79922.03;5050556;28;20035;-71
2022/02/26 03:57:59;;;;;;;18.88;4.70;;;;;;;-142.75;100.00;79918.09;5050531;28;20024;-70
2022/02/26 04:00:24;;;;;;;15.70;3.53;;;;;;;-142.75;100.00;79914.16;5050256;28;20380;-71
2022/02/26 04:02:50;;;;;;;16.63;3.70;;;;;;;-142.75;100.00;79910.22;5047596;28;20028;-71
2022/02/26 04:05:15;;;;;;;18.10;4.25;;;;;;;-142.75;100.00;79902.34;5050670;28;20159;-71
2022/02/26 04:07:42;;;;;;;15.07;3.88;;;;;;;-142.75;100.00;79910.22;5050430;28;20505;-70
2022/02/26 04:10:08;;;;;;;16.07;3.90;;;;;;;-142.75;100.00;79910.22;5028851;28;20077;-71
2022/02/26 04:12:33;;;;;;;21.13;4.77;;;;;;;-142.75;100.00;79922.03;5032274;28;20033;-71
2022/02/26 04:14:59;;;;;;;21.17;4.93;;;;;;;-142.75;100.00;79910.22;5048468;28;20486;-71
2022/02/26 04:17:24;;;;;;;13.70;3.43;;;;;;;-142.75;100.00;79906.28;5050308;28;20070;-71
2022/02/26 04:19:49;;;;;;;22.17;4.50;;;;;;;-142.75;100.00;79922.03;5032545;28;20696;-71
2022/02/26 04:22:14;;;;;;;16.98;4.00;;;;;;;-142.75;100.00;79943.72;5050456;28;20036;-70
2022/02/26 04:24:40;;;;;;;13.35;3.45;;;;;;;-142.75;100.00;79939.78;5032438;28;20483;-70
2022/02/26 04:27:05;;;;;;;15.65;3.58;;;;;;;-142.75;100.00;79955.53;5032144;28;20028;-71
2022/02/26 04:29:31;;;;;;;20.17;4.47;;;;;;;-142.75;100.00;79957.50;5032214;28;20029;-70
2022/02/26 04:31:56;;;;;;;8.73;3.72;;;;;;;-142.75;100.00;79961.44;5050239;28;20016;-70
2022/02/26 04:34:21;;;;;;;16.83;3.97;;;;;;;-142.75;100.00;79985.09;5032222;28;20144;-71
2022/02/26 04:36:46;;;;;;;19.08;5.53;;;;;;;-142.75;100.00;79985.09;5049827;28;20482;-70
2022/02/26 04:39:12;;;;;;;11.07;4.30;;;;;;;-142.75;100.00;79973.25;5031909;28;20060;-70
2022/02/26 04:41:37;;;;;;;15.18;4.25;;;;;;;-142.75;100.00;79989.03;5049969;28;20581;-70
2022/02/26 04:44:03;;;;;;;21.33;4.90;;;;;;;-142.75;100.00;79981.16;5032066;28;20112;-70
2022/02/26 04:46:28;;;;;;;12.40;3.72;;;;;;;-142.75;100.00;79985.09;5050016;28;20315;-70
2022/02/26 04:48:53;;;;;;;11.33;4.20;;;;;;;-142.75;100.00;79987.06;5050017;28;20452;-71
2022/02/26 04:51:19;;;;;;;13.43;3.67;;;;;;;-142.75;100.00;79996.91;5049822;28;20299;-71
2022/02/26 04:53:44;;;;;;;18.95;5.00;;;;;;;-142.75;100.00;80004.78;5050038;28;20047;-70
2022/02/26 04:56:09;;;;;;;10.13;3.72;;;;;;;-142.75;100.00;80014.63;5049774;28;20059;-71
2022/02/26 04:58:35;;;;;;;15.65;3.67;;;;;;;-142.75;100.00;80052.06;5049810;28;20482;-70
2022/02/26 05:01:03;;;;;;;13.48;3.25;;;;;;;-142.75;100.00;80059.94;5049803;28;20025;-71
2022/02/26 05:03:28;;;;;;;26.67;2.57;;;;;;;-142.75;100.00;80097.38;5049994;28;20044;-71
2022/02/26 05:05:53;;;;;;;22.83;2.70;;;;;;;-142.75;100.00;80099.34;5050081;28;20114;-70
2022/02/26 05:08:19;;;;;;;9.75;2.72;;;;;;;-142.75;100.00;80097.38;5032051;28;20037;-70
2022/02/26 05:10:44;;;;;;;21.92;2.90;;;;;;;-142.75;100.00;80099.34;5050059;28;20032;-70
2022/02/26 05:13:10;;;;;;;39.40;3.30;;;;;;;-142.75;100.00;80111.19;5051425;28;20029;-71
2022/02/26 05:15:35;;;;;;;22.80;2.90;;;;;;;-142.75;100.00;80130.88;5071510;22;20053;-68
2022/02/26 05:18:00;;;;;;;18.73;3.58;;;;;;;-142.75;100.00;80117.09;5031163;28;20060;-67
2022/02/26 05:20:26;;;;;;;35.25;3.28;;;;;;;-142.75;100.00;80128.91;5033001;28;20029;-68
2022/02/26 05:22:52;;;;;;;55.38;3.55;;;;;;;-142.75;100.00;80123.00;5033921;28;20029;-68
2022/02/26 05:25:17;;;;;;;21.98;3.90;;;;;;;-142.75;100.00;80132.84;5016899;28;20037;-68
2022/02/26 05:27:42;;;;;;;82.97;3.93;;;;;;;-142.75;100.00;80148.59;5033718;28;20112;-68
2022/02/26 05:30:11;;;;;;;45.53;3.92;;;;;;;-142.75;100.00;80156.50;5032556;28;20272;-68
2022/02/26 05:32:37;;;;;;;36.17;3.33;;;;;;;-142.75;100.00;80168.31;5015830;28;20057;-68
2022/02/26 05:35:03;;;;;;;14.50;3.35;;;;;;;-142.75;100.00;80170.28;5033443;28;20502;-68
2022/02/26 05:37:29;;;;;;;17.90;2.77;;;;;;;-142.75;100.00;80168.31;5033770;28;20407;-68
2022/02/26 05:39:54;;;;;;;22.23;3.30;;;;;;;-142.75;100.00;80174.22;5033991;28;20037;-68
2022/02/26 05:42:19;;;;;;;29.20;3.37;;;;;;;-142.75;100.00;80170.28;5015713;28;20029;-68
2022/02/26 05:44:45;;;;;;;13.48;3.25;;;;;;;-142.75;100.00;80168.31;5033441;28;20279;-68
2022/02/26 05:47:10;;;;;;;12.30;3.50;;;;;;;-142.75;100.00;80146.63;5033373;28;20028;-67
2022/02/26 05:49:35;;;;;;;44.88;3.53;;;;;;;-142.75;100.00;80174.22;5015770;28;20037;-67
2022/02/26 05:52:01;;;;;;;72.72;4.13;;;;;;;-142.75;100.00;80166.34;5033527;28;20111;-69
2022/02/26 05:54:27;;;;;;;31.48;3.85;;;;;;;-142.75;100.00;80170.28;5015121;28;20063;-69
2022/02/26 05:56:52;;;;;;;24.10;3.72;;;;;;;-142.75;100.00;80148.59;5033193;28;20032;-68
2022/02/26 05:59:18;;;;;;;23.77;3.08;;;;;;;-142.75;100.00;80160.44;5032867;28;20025;-68
2022/02/26 06:01:43;;;;;;;20.27;3.03;;;;;;;-142.75;100.00;80189.97;5033555;28;20075;-68
2022/02/26 06:04:08;;;;;;;38.10;3.15;;;;;;;-142.75;100.00;80217.56;5033779;28;20033;-68
2022/02/26 06:06:33;;;;;;;41.38;3.75;;;;;;;-142.75;100.00;80201.81;5015856;28;20041;-68
2022/02/26 06:08:59;;;;;;;5.25;3.00;;;;;;;-142.75;100.00;80199.84;5035262;28;20025;-68
2022/02/26 06:11:24;;;;;;;32.17;4.03;;;;;;;-142.75;100.00;80205.75;5053419;28;20114;-68
2022/02/26 06:13:50;;;;;;;22.83;3.88;;;;;;;-142.75;100.00;80205.75;5053216;28;20025;-68
2022/02/26 06:16:15;;;;;;;16.23;4.03;;;;;;;-142.75;100.00;80197.88;5035344;28;20036;-68
2022/02/26 06:18:41;;;;;;;11.00;3.70;;;;;;;-142.75;100.00;80203.78;5035346;28;20029;-68
2022/02/26 06:21:06;;;;;;;10.63;4.07;;;;;;;-142.75;100.00;80201.81;5035442;28;20471;-68
2022/02/26 06:23:31;;;;;;;22.15;3.88;;;;;;;-142.75;100.00;80205.75;5053017;28;20503;-69
2022/02/26 06:25:57;;;;;;;17.70;3.45;;;;;;;-142.75;100.00;80219.53;5053216;28;20029;-68
2022/02/26 06:28:22;;;;;;;10.30;2.60;;;;;;;-142.75;100.00;80229.38;5052948;28;20023;-68
2022/02/26 06:30:47;;;;;;;31.00;3.10;;;;;;;-142.75;100.00;80249.09;5035028;28;20020;-68
2022/02/26 06:33:14;;;;;;;31.52;3.42;;;;;;;-142.75;100.00;80258.94;5052927;28;20028;-68
2022/02/26 06:35:42;;;;;;;;;;;;;;;-142.75;100.00;80282.59;5053249;28;20075;-68
2022/02/26 06:38:07;;;;;;;30.60;2.80;;;;;;;-142.75;100.00;80288.50;5052697;28;19913;-68
2022/02/26 06:40:33;;;;;;;21.27;3.17;;;;;;;-142.75;100.00;80296.38;5052773;28;20066;-68
2022/02/26 06:42:59;;;;;;;35.38;4.47;;;;;;;-142.75;100.00;80296.38;5052986;28;20075;-68
2022/02/26 06:45:24;;;;;;;34.72;4.03;;;;;;;-142.75;100.00;80300.31;5052757;28;20021;-68
2022/02/26 06:47:50;;;;;;;45.45;5.25;;;;;;;-142.75;100.00;80308.19;5052639;28;20056;-68
2022/02/26 06:50:15;;;;;;;20.63;5.00;;;;;;;-142.75;100.00;80316.09;5052590;28;20100;-68
2022/02/26 06:52:40;;;;;;;19.33;5.57;;;;;;;-142.75;100.00;80306.22;5052532;28;20025;-68
2022/02/26 06:55:06;;;;;;;13.18;5.10;;;;;;;-142.75;100.00;80312.16;5052659;28;20029;-69
2022/02/26 06:57:32;;;;;;;26.58;5.68;;;;;;;-142.75;100.00;80312.16;5034681;28;20452;-69
2022/02/26 06:59:57;;;;;;;27.17;4.82;;;;;;;-142.75;100.00;80314.13;5034454;28;20028;-68
2022/02/26 07:02:23;;;;;;;14.63;5.80;;;;;;;-142.75;100.00;80314.13;5052431;28;20418;-68
2022/02/26 07:04:48;;;;;;;37.88;5.38;;;;;;;-142.75;100.00;80320.03;5052512;28;20059;-68
2022/02/26 07:07:13;;;;;;;38.33;5.23;;;;;;;-142.75;100.00;80327.91;5052245;28;20021;-69
2022/02/26 07:09:40;;;;;;;41.35;5.00;;;;;;;-142.75;100.00;80316.09;5052011;28;20387;-68
2022/02/26 07:12:07;;;;;;;32.70;4.60;;;;;;;-142.75;100.00;80310.16;5052124;28;20395;-68
2022/02/26 07:14:32;;;;;;;32.27;5.70;;;;;;;-142.75;100.00;80316.09;5052198;28;20040;-68
2022/02/26 07:16:57;;;;;;;22.42;5.35;;;;;;;-142.75;100.00;80314.13;5051916;28;20025;-68
2022/02/26 07:19:23;;;;;;;27.73;5.28;;;;;;;-142.75;100.00;80308.19;5051966;28;20371;-68
2022/02/26 07:21:48;;;;;;;40.92;5.45;;;;;;;-142.75;100.00;80308.19;5052104;28;20029;-68
2022/02/26 07:24:14;;;;;;;10.82;4.78;;;;;;;-142.75;100.00;80282.59;5034166;28;20017;-68
2022/02/26 07:26:39;;;;;;;16.40;4.90;;;;;;;-142.75;100.00;80262.88;5052147;28;20060;-68
2022/02/26 07:29:05;;;;;;;9.15;4.43;;;;;;;-142.75;100.00;80253.03;5051961;28;20392;-68
2022/02/26 07:31:30;;;;;;;9.95;5.05;;;;;;;-142.75;100.00;80233.31;5052653;28;20033;-68
2022/02/26 07:33:56;;;;;;;7.95;5.03;;;;;;;-142.75;100.00;80209.69;5051781;28;20028;-68
2022/02/26 07:36:22;;;;;;;16.83;5.30;;;;;;;-142.75;100.00;80217.56;5051164;28;20025;-68
2022/02/26 07:38:47;;;;;;;7.78;5.03;;;;;;;-142.75;100.00;80189.97;5051461;28;20512;-68
2022/02/26 07:41:12;;;;;;;12.57;5.28;;;;;;;-142.75;100.00;80162.41;5051969;28;20028;-68
2022/02/26 07:43:38;;;;;;;12.38;5.00;;;;;;;-142.75;100.00;80142.69;5050886;28;20055;-68
2022/02/26 07:46:05;;;;;;;7.93;5.05;;;;;;;-142.75;100.00;80111.19;5050662;28;20033;-69
2022/02/26 07:48:31;;;;;;;11.77;4.80;;;;;;;-142.75;100.00;80107.22;5032926;28;20029;-68
2022/02/26 07:50:56;;;;;;;11.65;5.05;;;;;;;-142.75;100.00;80079.66;5050735;28;20514;-68
2022/02/26 07:53:23;;;;;;;12.48;5.32;;;;;;;-142.75;100.00;80038.28;5050710;28;20033;-68
2022/02/26 07:55:48;;;;;;;21.07;5.97;;;;;;;-142.75;100.00;80006.75;5032659;28;20502;-69
2022/02/26 07:58:14;;;;;;;13.73;5.55;;;;;;;-142.75;100.00;79994.94;5050505;28;20029;-69
2022/02/26 08:00:39;;;;;;;11.73;6.20;;;;;;;-142.75;100.00;79963.41;5050750;28;20021;-68
2022/02/26 08:03:05;;;;;;;11.50;6.00;;;;;;;-142.75;100.00;79927.94;5050765;28;20039;-68
2022/02/26 08:05:31;;;;;;;;;;;;;;;-142.75;100.00;79898.41;5050274;28;20307;-68
2022/02/26 08:07:56;;;;;;;12.43;6.37;;;;;;;-142.75;100.00;79847.19;5030440;28;20398;-68
2022/02/26 08:10:22;;;;;;;13.75;6.03;;;;;;;-142.75;100.00;79801.88;5030949;28;20415;-68
2022/02/26 08:12:49;;;;;;;9.15;5.82;;;;;;;-142.75;100.00;79740.78;5031211;28;20029;-68
2022/02/26 08:15:15;;;;;;;6.77;5.30;;;;;;;-142.75;100.00;79705.34;5030400;28;20033;-68
2022/02/26 08:17:44;;;;;;;7.97;4.97;;;;;;;-142.75;100.00;79662.00;5030734;28;20048;-68
2022/02/26 08:20:10;;;;;;;8.87;5.23;;;;;;;-142.75;100.00;79618.66;5036034;28;20029;-68
2022/02/26 08:22:36;;;;;;;8.57;4.70;;;;;;;-142.75;100.00;79602.88;5048669;28;20032;-69
2022/02/26 08:25:01;;;;;;;8.80;4.80;;;;;;;-142.75;100.00;79591.06;5049778;28;20079;-68
2022/02/26 08:27:27;;;;;;;7.47;5.43;;;;;;;-142.75;100.00;79547.72;5032319;28;20431;-69
2022/02/26 08:29:52;;;;;;;7.88;5.05;;;;;;;-142.75;100.00;79494.53;5044751;28;20498;-69
2022/02/26 08:32:18;;;;;;;11.13;5.15;;;;;;;-142.75;100.00;79470.91;5030345;28;20029;-68
2022/02/26 08:34:44;;;;;;;12.93;5.85;;;;;;;-142.75;100.00;79465.00;5030302;28;20041;-68
2022/02/26 08:37:09;;;;;;;8.20;5.57;;;;;;;-142.75;100.00;79413.78;5030231;28;20029;-68
2022/02/26 08:39:34;;;;;;;9.43;6.45;;;;;;;-142.75;100.00;79417.72;5029758;28;20439;-69
2022/02/26 08:41:59;;;;;;;11.93;6.85;;;;;;;-142.75;100.00;79366.50;5029515;28;20033;-68
2022/02/26 08:44:25;;;;;;;13.15;6.72;;;;;;;-142.75;100.00;79313.31;5029352;28;20021;-68
2022/02/26 08:46:50;;;;;;;14.07;8.20;;;;;;;-142.75;100.00;79327.09;5029072;28;20060;-68
2022/02/26 08:49:15;;;;;;;24.85;15.32;;;;;;;-142.75;100.00;79303.47;5028918;28;20091;-68
2022/02/26 08:51:41;;;;;;;16.60;11.50;;;;;;;-142.75;100.00;79254.22;5029400;28;20031;-68
2022/02/26 08:54:06;;;;;;;17.15;7.97;;;;;;;-142.75;100.00;79262.09;5033378;28;20363;-68
2022/02/26 08:56:31;;;;;;;15.57;8.10;;;;;;;-142.75;100.00;79293.63;5049568;28;20025;-68
2022/02/26 08:58:58;;;;;;;17.25;9.27;;;;;;;-142.75;100.00;79311.34;5023494;28;20282;-68
2022/02/26 09:01:24;;;;;;;;;;;;;;;-142.75;100.00;79279.84;5045880;28;20025;-69
2022/02/26 09:03:49;;;;;;;20.10;8.83;;;;;;;-142.75;100.00;79303.47;5049571;28;19974;-69
2022/02/26 09:06:14;;;;;;;19.75;8.75;;;;;;;-142.75;100.00;79279.84;5049510;28;20028;-67
2022/02/26 09:08:40;;;;;;;16.23;8.93;;;;;;;-142.75;100.00;79220.75;5049321;28;20055;-68
2022/02/26 09:11:06;;;;;;;18.10;8.80;;;;;;;-142.75;100.00;79138.00;5049669;28;20055;-69
2022/02/26 09:13:32;;;;;;;;;;;;;;;-142.75;100.00;79069.06;5041588;28;20032;-68
2022/02/26 09:15:58;;;;;;;21.37;9.70;;;;;;;-142.75;100.00;79031.66;5050295;28;19919;-68
2022/02/26 09:18:23;;;;;;;15.40;8.50;;;;;;;-142.75;100.00;79009.97;5049517;28;20378;-68
2022/02/26 09:20:48;;;;;;;20.60;8.65;;;;;;;-142.75;100.00;78974.53;5049513;28;20033;-67
2022/02/26 09:23:13;;;;;;;17.80;8.60;;;;;;;-142.75;100.00;78943.00;5049089;28;20033;-67
2022/02/26 09:25:39;;;;;;;17.88;9.82;;;;;;;-142.75;100.00;78919.38;5049369;28;20414;-68
2022/02/26 09:28:04;;;;;;;19.67;9.35;;;;;;;-142.75;100.00;78881.94;5049284;28;20021;-68
2022/02/26 09:30:29;;;;;;;18.70;8.45;;;;;;;-142.75;100.00;78889.81;5050214;28;20025;-69
2022/02/26 09:32:54;;;;;;;15.47;8.37;;;;;;;-142.75;100.00;78838.63;5051355;28;20048;-68
2022/02/26 09:35:20;;;;;;;13.23;6.63;;;;;;;-142.75;100.00;78870.13;5049542;28;21121;-68
2022/02/26 09:37:45;;;;;;;17.42;7.32;;;;;;;-142.75;100.00;78923.31;5048194;28;20043;-69
2022/02/26 09:40:10;;;;;;;15.90;7.30;;;;;;;-142.75;100.00;78956.78;5036182;28;20025;-68
2022/02/26 09:42:36;;;;;;;11.65;6.30;;;;;;;-142.75;100.00;78909.53;5041782;28;20474;-68
2022/02/26 09:45:03;;;;;;;17.90;6.72;;;;;;;-142.75;100.00;78895.75;5049297;28;20024;-68
2022/02/26 09:47:28;;;;;;;18.60;6.85;;;;;;;-142.75;100.00;78885.88;5048849;28;20060;-67
2022/02/26 09:49:53;;;;;;;19.10;7.25;;;;;;;-142.75;100.00;78870.13;5048878;28;20048;-67
2022/02/26 09:52:19;;;;;;;18.23;5.70;;;;;;;-142.75;100.00;78872.09;5039582;28;20025;-67
2022/02/26 09:54:48;;;;;;;15.32;5.63;;;;;;;-142.75;100.00;78876.03;5049274;28;20108;-66
2022/02/26 09:57:15;;;;;;;14.65;5.47;;;;;;;-142.75;100.00;78874.06;5033061;28;20033;-69
2022/02/26 09:59:44;;;;;;;20.77;6.25;;;;;;;-142.75;100.00;78838.63;5031433;28;20025;-69
2022/02/26 10:02:10;;;;;;;14.30;5.18;;;;;;;-142.75;100.00;78761.81;5032539;28;20086;-68
2022/02/26 10:04:36;;;;;;;;;;;;;;;-142.75;100.00;78811.03;5033315;28;20033;-68
2022/02/26 10:07:13;;;;;;;12.17;3.70;;;;;;;-142.75;100.00;78854.38;5032801;28;19913;-68
2022/02/26 10:09:40;;;;;;;16.80;4.72;;;;;;;-142.75;100.00;78791.34;5032799;28;20033;-68
2022/02/26 10:12:24;;;;;;;11.00;4.10;;;;;;;-142.75;100.00;78811.03;5032747;28;20638;-68
2022/02/26 10:14:51;;;;;;;12.82;3.55;;;;;;;-142.75;100.00;78791.34;5032343;28;20136;-69
2022/02/26 10:17:28;;;;;;;9.52;3.10;;;;;;;-142.75;100.00;78858.31;5032263;28;20399;-68
2022/02/26 10:20:01;;;;;;;14.90;3.92;;;;;;;-142.75;100.00;78799.22;5032218;28;20022;-69
2022/02/26 10:22:31;;;;;;;18.45;3.80;;;;;;;-142.75;100.00;78862.25;5032522;28;20450;-68
2022/02/26 10:25:03;;;;;;;12.70;3.58;;;;;;;-142.75;100.00;78822.88;5032430;28;20025;-69
2022/02/26 10:27:28;;;;;;;12.52;3.30;;;;;;;-142.75;100.00;78834.69;5032182;28;20418;-68
2022/02/26 10:29:54;;;;;;;8.18;3.08;;;;;;;-142.75;100.00;78791.34;5032026;28;20101;-69
2022/02/26 10:32:21;;;;;;;9.13;2.08;;;;;;;-142.75;100.00;78777.56;5032562;28;20021;-68
2022/02/26 10:34:47;;;;;;;11.57;3.13;;;;;;;-142.75;100.00;78773.63;5031056;28;20025;-68
2022/02/26 10:37:15;;;;;;;11.13;2.90;;;;;;;-142.75;100.00;78746.03;5032239;28;20506;-68
2022/02/26 10:39:49;;;;;;;9.07;3.10;;;;;;;-142.75;100.00;78767.72;5031821;28;20108;-69
2022/02/26 10:42:22;;;;;;;10.77;3.70;;;;;;;-142.75;100.00;78685.00;5032089;28;20056;-69
2022/02/26 10:45:09;;;;;;;9.95;2.60;;;;;;;-142.75;100.00;78669.25;5044788;28;20455;-69
2022/02/26 10:47:36;;;;;;;16.25;4.10;;;;;;;-142.75;100.00;78692.88;5034584;28;20061;-68
2022/02/26 10:50:19;;;;;;;12.75;3.00;;;;;;;-142.75;100.00;78698.78;5051653;28;20131;-69
2022/02/26 10:53:02;;;;;;;11.57;2.78;;;;;;;-142.75;100.00;78712.56;5051690;28;20037;-69
2022/02/26 10:55:58;;;;;;;15.15;3.20;;;;;;;-142.75;100.00;78639.69;5051540;28;20063;-69
2022/02/26 10:58:26;;;;;;;8.30;2.50;;;;;;;-142.75;100.00;78669.25;5051414;28;20470;-68
2022/02/26 11:00:58;;;;;;;11.63;2.60;;;;;;;-142.75;100.00;78736.19;5051326;28;20110;-69